sensor_id;sensor_type;location;lat;lon;timestamp;P1;durP1;ratioP1;P2;durP2;ratioP2
29916;SDS011;16786;49.466;11.068;2023-04-24T00:00:46;6.93;;;3.50;;
29916;SDS011;16786;49.466;11.068;2023-04-24T00:03:15;7.35;;;3.20;;
29916;SDS011;16786;49.466;11.068;2023-04-24T00:05:43;8.05;;;3.60;;
29916;SDS011;16786;49.466;11.068;2023-04-24T00:08:10;5.70;;;2.90;;
29916;SDS011;16786;49.466;11.068;2023-04-24T00:10:39;5.53;;;3.03;;
29916;SDS011;16786;49.466;11.068;2023-04-24T00:13:08;5.63;;;2.75;;
29916;SDS011;16786;49.466;11.068;2023-04-24T00:15:35;5.57;;;2.53;;
29916;SDS011;16786;49.466;11.068;2023-04-24T00:18:04;7.15;;;2.53;;
29916;SDS011;16786;49.466;11.068;2023-04-24T00:20:32;5.78;;;2.78;;
29916;SDS011;16786;49.466;11.068;2023-04-24T00:23:00;4.72;;;2.60;;
29916;SDS011;16786;49.466;11.068;2023-04-24T00:25:27;5.60;;;3.10;;
29916;SDS011;16786;49.466;11.068;2023-04-24T00:27:54;5.05;;;2.60;;
29916;SDS011;16786;49.466;11.068;2023-04-24T00:30:22;5.32;;;2.67;;
29916;SDS011;16786;49.466;11.068;2023-04-24T00:32:49;4.95;;;2.40;;
29916;SDS011;16786;49.466;11.068;2023-04-24T00:35:17;6.13;;;2.53;;
29916;SDS011;16786;49.466;11.068;2023-04-24T00:37:46;3.95;;;2.45;;
29916;SDS011;16786;49.466;11.068;2023-04-24T00:40:15;4.43;;;2.50;;
29916;SDS011;16786;49.466;11.068;2023-04-24T00:42:43;6.20;;;2.70;;
29916;SDS011;16786;49.466;11.068;2023-04-24T00:45:11;5.03;;;3.10;;
29916;SDS011;16786;49.466;11.068;2023-04-24T00:47:39;5.03;;;2.45;;
29916;SDS011;16786;49.466;11.068;2023-04-24T00:50:09;7.32;;;2.70;;
29916;SDS011;16786;49.466;11.068;2023-04-24T00:52:38;4.82;;;2.53;;
29916;SDS011;16786;49.466;11.068;2023-04-24T00:55:07;5.80;;;3.17;;
29916;SDS011;16786;49.466;11.068;2023-04-24T00:57:35;7.32;;;2.88;;
29916;SDS011;16786;49.466;11.068;2023-04-24T01:00:05;4.70;;;2.90;;
29916;SDS011;16786;49.466;11.068;2023-04-24T01:02:43;6.78;;;2.83;;
29916;SDS011;16786;49.466;11.068;2023-04-24T01:05:13;5.95;;;2.60;;
29916;SDS011;16786;49.466;11.068;2023-04-24T01:07:43;5.32;;;2.67;;
29916;SDS011;16786;49.466;11.068;2023-04-24T01:10:13;6.78;;;2.33;;
29916;SDS011;16786;49.466;11.068;2023-04-24T01:12:41;4.95;;;2.60;;
29916;SDS011;16786;49.466;11.068;2023-04-24T01:15:11;5.20;;;2.13;;
29916;SDS011;16786;49.466;11.068;2023-04-24T01:17:41;6.05;;;2.10;;
29916;SDS011;16786;49.466;11.068;2023-04-24T01:20:11;4.70;;;1.98;;
29916;SDS011;16786;49.466;11.068;2023-04-24T01:22:40;4.32;;;2.15;;
29916;SDS011;16786;49.466;11.068;2023-04-24T01:25:08;6.45;;;2.10;;
29916;SDS011;16786;49.466;11.068;2023-04-24T01:27:37;4.80;;;2.22;;
29916;SDS011;16786;49.466;11.068;2023-04-24T01:30:06;3.05;;;1.80;;
29916;SDS011;16786;49.466;11.068;2023-04-24T01:32:35;3.35;;;1.83;;
29916;SDS011;16786;49.466;11.068;2023-04-24T01:35:05;4.03;;;1.90;;
29916;SDS011;16786;49.466;11.068;2023-04-24T01:37:33;4.22;;;1.90;;
29916;SDS011;16786;49.466;11.068;2023-04-24T01:40:05;3.50;;;2.15;;
29916;SDS011;16786;49.466;11.068;2023-04-24T01:42:34;3.25;;;1.88;;
29916;SDS011;16786;49.466;11.068;2023-04-24T01:45:02;2.95;;;1.90;;
29916;SDS011;16786;49.466;11.068;2023-04-24T01:47:31;3.00;;;2.00;;
29916;SDS011;16786;49.466;11.068;2023-04-24T01:49:59;5.22;;;2.10;;
29916;SDS011;16786;49.466;11.068;2023-04-24T01:52:26;3.90;;;2.00;;
29916;SDS011;16786;49.466;11.068;2023-04-24T01:54:59;4.23;;;1.50;;
29916;SDS011;16786;49.466;11.068;2023-04-24T01:57:27;3.13;;;1.73;;
29916;SDS011;16786;49.466;11.068;2023-04-24T01:59:57;2.75;;;1.60;;
29916;SDS011;16786;49.466;11.068;2023-04-24T02:02:24;3.45;;;1.80;;
29916;SDS011;16786;49.466;11.068;2023-04-24T02:04:57;2.60;;;1.55;;
29916;SDS011;16786;49.466;11.068;2023-04-24T02:07:25;4.65;;;1.80;;
29916;SDS011;16786;49.466;11.068;2023-04-24T02:09:52;3.45;;;1.88;;
29916;SDS011;16786;49.466;11.068;2023-04-24T02:12:20;4.75;;;2.28;;
29916;SDS011;16786;49.466;11.068;2023-04-24T02:14:50;3.28;;;1.52;;
29916;SDS011;16786;49.466;11.068;2023-04-24T02:17:18;2.92;;;1.70;;
29916;SDS011;16786;49.466;11.068;2023-04-24T02:19:45;3.88;;;1.75;;
29916;SDS011;16786;49.466;11.068;2023-04-24T02:22:13;3.53;;;1.63;;
29916;SDS011;16786;49.466;11.068;2023-04-24T02:24:40;4.00;;;1.70;;
29916;SDS011;16786;49.466;11.068;2023-04-24T02:27:07;2.35;;;1.40;;
29916;SDS011;16786;49.466;11.068;2023-04-24T02:29:35;6.25;;;1.67;;
29916;SDS011;16786;49.466;11.068;2023-04-24T02:32:04;2.85;;;1.60;;
29916;SDS011;16786;49.466;11.068;2023-04-24T02:34:32;3.03;;;1.50;;
29916;SDS011;16786;49.466;11.068;2023-04-24T02:37:00;3.28;;;1.60;;
29916;SDS011;16786;49.466;11.068;2023-04-24T02:39:27;3.50;;;1.73;;
29916;SDS011;16786;49.466;11.068;2023-04-24T02:41:54;3.72;;;1.85;;
29916;SDS011;16786;49.466;11.068;2023-04-24T02:44:22;3.83;;;1.88;;
29916;SDS011;16786;49.466;11.068;2023-04-24T02:46:49;4.13;;;1.90;;
29916;SDS011;16786;49.466;11.068;2023-04-24T02:49:17;5.93;;;1.95;;
29916;SDS011;16786;49.466;11.068;2023-04-24T02:51:44;3.28;;;1.70;;
29916;SDS011;16786;49.466;11.068;2023-04-24T02:54:12;4.45;;;1.98;;
29916;SDS011;16786;49.466;11.068;2023-04-24T02:56:40;4.93;;;2.10;;
29916;SDS011;16786;49.466;11.068;2023-04-24T02:59:08;3.35;;;1.83;;
29916;SDS011;16786;49.466;11.068;2023-04-24T03:01:36;3.13;;;1.67;;
29916;SDS011;16786;49.466;11.068;2023-04-24T03:04:03;4.47;;;2.00;;
29916;SDS011;16786;49.466;11.068;2023-04-24T03:06:31;3.60;;;1.80;;
29916;SDS011;16786;49.466;11.068;2023-04-24T03:08:59;3.35;;;1.83;;
29916;SDS011;16786;49.466;11.068;2023-04-24T03:11:26;4.63;;;1.80;;
29916;SDS011;16786;49.466;11.068;2023-04-24T03:13:54;3.13;;;2.08;;
29916;SDS011;16786;49.466;11.068;2023-04-24T03:16:22;4.40;;;1.80;;
29916;SDS011;16786;49.466;11.068;2023-04-24T03:18:49;3.60;;;1.70;;
29916;SDS011;16786;49.466;11.068;2023-04-24T03:21:19;3.92;;;1.95;;
29916;SDS011;16786;49.466;11.068;2023-04-24T03:23:47;3.20;;;1.70;;
29916;SDS011;16786;49.466;11.068;2023-04-24T03:26:15;7.60;;;1.92;;
29916;SDS011;16786;49.466;11.068;2023-04-24T03:28:54;3.67;;;2.13;;
29916;SDS011;16786;49.466;11.068;2023-04-24T03:31:23;4.30;;;2.20;;
29916;SDS011;16786;49.466;11.068;2023-04-24T03:33:51;4.72;;;2.00;;
29916;SDS011;16786;49.466;11.068;2023-04-24T03:36:19;4.85;;;1.90;;
29916;SDS011;16786;49.466;11.068;2023-04-24T03:38:47;5.50;;;1.95;;
29916;SDS011;16786;49.466;11.068;2023-04-24T03:41:33;3.60;;;2.00;;
29916;SDS011;16786;49.466;11.068;2023-04-24T03:44:24;3.75;;;2.15;;
29916;SDS011;16786;49.466;11.068;2023-04-24T03:46:52;3.15;;;1.70;;
29916;SDS011;16786;49.466;11.068;2023-04-24T03:49:23;3.45;;;1.88;;
29916;SDS011;16786;49.466;11.068;2023-04-24T03:51:51;3.10;;;1.98;;
29916;SDS011;16786;49.466;11.068;2023-04-24T03:54:22;4.75;;;2.03;;
29916;SDS011;16786;49.466;11.068;2023-04-24T03:56:51;4.68;;;1.83;;
29916;SDS011;16786;49.466;11.068;2023-04-24T03:59:38;3.83;;;1.92;;
29916;SDS011;16786;49.466;11.068;2023-04-24T04:02:15;3.90;;;2.15;;
29916;SDS011;16786;49.466;11.068;2023-04-24T04:04:42;4.70;;;2.28;;
29916;SDS011;16786;49.466;11.068;2023-04-24T04:07:10;4.57;;;2.20;;
29916;SDS011;16786;49.466;11.068;2023-04-24T04:09:39;7.82;;;2.30;;
29916;SDS011;16786;49.466;11.068;2023-04-24T04:12:07;4.88;;;2.50;;
29916;SDS011;16786;49.466;11.068;2023-04-24T04:14:37;4.28;;;2.08;;
29916;SDS011;16786;49.466;11.068;2023-04-24T04:17:05;5.55;;;2.60;;
29916;SDS011;16786;49.466;11.068;2023-04-24T04:19:32;5.30;;;2.67;;
29916;SDS011;16786;49.466;11.068;2023-04-24T04:22:00;4.10;;;2.55;;
29916;SDS011;16786;49.466;11.068;2023-04-24T04:24:41;4.80;;;2.43;;
29916;SDS011;16786;49.466;11.068;2023-04-24T04:27:10;4.80;;;2.75;;
29916;SDS011;16786;49.466;11.068;2023-04-24T04:29:58;6.10;;;2.80;;
29916;SDS011;16786;49.466;11.068;2023-04-24T04:32:38;9.10;;;2.67;;
29916;SDS011;16786;49.466;11.068;2023-04-24T04:35:07;8.20;;;3.83;;
29916;SDS011;16786;49.466;11.068;2023-04-24T04:37:36;10.32;;;5.05;;
29916;SDS011;16786;49.466;11.068;2023-04-24T04:40:32;10.73;;;5.20;;
29916;SDS011;16786;49.466;11.068;2023-04-24T04:43:05;8.32;;;4.63;;
29916;SDS011;16786;49.466;11.068;2023-04-24T04:45:40;8.90;;;5.03;;
29916;SDS011;16786;49.466;11.068;2023-04-24T04:48:32;11.80;;;5.72;;
29916;SDS011;16786;49.466;11.068;2023-04-24T04:51:02;6.78;;;4.60;;
29916;SDS011;16786;49.466;11.068;2023-04-24T04:53:30;7.70;;;4.90;;
29916;SDS011;16786;49.466;11.068;2023-04-24T04:55:58;6.55;;;4.10;;
29916;SDS011;16786;49.466;11.068;2023-04-24T04:58:33;5.97;;;3.85;;
29916;SDS011;16786;49.466;11.068;2023-04-24T05:01:01;6.90;;;3.70;;
29916;SDS011;16786;49.466;11.068;2023-04-24T05:03:33;7.05;;;3.70;;
29916;SDS011;16786;49.466;11.068;2023-04-24T05:06:07;5.70;;;3.30;;
29916;SDS011;16786;49.466;11.068;2023-04-24T05:08:37;6.55;;;3.40;;
29916;SDS011;16786;49.466;11.068;2023-04-24T05:11:08;5.68;;;3.20;;
29916;SDS011;16786;49.466;11.068;2023-04-24T05:13:37;8.75;;;3.25;;
29916;SDS011;16786;49.466;11.068;2023-04-24T05:16:17;7.55;;;3.67;;
29916;SDS011;16786;49.466;11.068;2023-04-24T05:18:46;7.70;;;3.20;;
29916;SDS011;16786;49.466;11.068;2023-04-24T05:21:18;6.72;;;2.95;;
29916;SDS011;16786;49.466;11.068;2023-04-24T05:23:51;7.45;;;3.10;;
29916;SDS011;16786;49.466;11.068;2023-04-24T05:26:38;5.65;;;3.20;;
29916;SDS011;16786;49.466;11.068;2023-04-24T05:29:07;5.25;;;2.60;;
29916;SDS011;16786;49.466;11.068;2023-04-24T05:31:34;11.02;;;3.28;;
29916;SDS011;16786;49.466;11.068;2023-04-24T05:34:02;6.97;;;3.05;;
29916;SDS011;16786;49.466;11.068;2023-04-24T05:36:29;6.20;;;3.10;;
29916;SDS011;16786;49.466;11.068;2023-04-24T05:38:58;5.97;;;3.13;;
29916;SDS011;16786;49.466;11.068;2023-04-24T05:41:25;6.63;;;3.50;;
29916;SDS011;16786;49.466;11.068;2023-04-24T05:43:54;5.40;;;2.90;;
29916;SDS011;16786;49.466;11.068;2023-04-24T05:46:22;7.57;;;3.50;;
29916;SDS011;16786;49.466;11.068;2023-04-24T05:48:50;5.18;;;2.88;;
29916;SDS011;16786;49.466;11.068;2023-04-24T05:51:18;6.32;;;2.95;;
29916;SDS011;16786;49.466;11.068;2023-04-24T05:53:45;6.80;;;3.20;;
29916;SDS011;16786;49.466;11.068;2023-04-24T05:56:13;8.25;;;3.17;;
29916;SDS011;16786;49.466;11.068;2023-04-24T05:58:40;6.32;;;2.83;;
29916;SDS011;16786;49.466;11.068;2023-04-24T06:01:09;9.35;;;3.45;;
29916;SDS011;16786;49.466;11.068;2023-04-24T06:03:38;8.32;;;3.30;;
29916;SDS011;16786;49.466;11.068;2023-04-24T06:06:06;6.70;;;3.30;;
29916;SDS011;16786;49.466;11.068;2023-04-24T06:08:35;6.57;;;2.47;;
29916;SDS011;16786;49.466;11.068;2023-04-24T06:11:02;6.75;;;2.75;;
29916;SDS011;16786;49.466;11.068;2023-04-24T06:13:31;8.48;;;2.85;;
29916;SDS011;16786;49.466;11.068;2023-04-24T06:16:32;5.10;;;2.60;;
29916;SDS011;16786;49.466;11.068;2023-04-24T06:19:05;5.88;;;2.95;;
29916;SDS011;16786;49.466;11.068;2023-04-24T06:21:33;6.85;;;3.10;;
29916;SDS011;16786;49.466;11.068;2023-04-24T06:24:00;5.50;;;2.85;;
29916;SDS011;16786;49.466;11.068;2023-04-24T06:26:28;5.47;;;2.67;;
29916;SDS011;16786;49.466;11.068;2023-04-24T06:28:55;7.45;;;2.75;;
29916;SDS011;16786;49.466;11.068;2023-04-24T06:31:25;5.85;;;2.63;;
29916;SDS011;16786;49.466;11.068;2023-04-24T06:33:53;4.43;;;2.78;;
29916;SDS011;16786;49.466;11.068;2023-04-24T06:36:20;5.78;;;2.85;;
29916;SDS011;16786;49.466;11.068;2023-04-24T06:38:48;3.80;;;2.45;;
29916;SDS011;16786;49.466;11.068;2023-04-24T06:41:15;6.22;;;3.22;;
29916;SDS011;16786;49.466;11.068;2023-04-24T06:43:42;3.95;;;2.08;;
29916;SDS011;16786;49.466;11.068;2023-04-24T06:46:10;5.15;;;2.33;;
29916;SDS011;16786;49.466;11.068;2023-04-24T06:48:39;3.80;;;1.92;;
29916;SDS011;16786;49.466;11.068;2023-04-24T06:51:06;4.72;;;1.90;;
29916;SDS011;16786;49.466;11.068;2023-04-24T06:53:34;5.88;;;1.70;;
29916;SDS011;16786;49.466;11.068;2023-04-24T06:56:01;3.75;;;1.80;;
29916;SDS011;16786;49.466;11.068;2023-04-24T06:58:29;7.90;;;1.83;;
29916;SDS011;16786;49.466;11.068;2023-04-24T07:00:57;3.13;;;1.60;;
29916;SDS011;16786;49.466;11.068;2023-04-24T07:03:24;3.83;;;1.90;;
29916;SDS011;16786;49.466;11.068;2023-04-24T07:05:52;5.22;;;1.88;;
29916;SDS011;16786;49.466;11.068;2023-04-24T07:08:21;4.60;;;1.70;;
29916;SDS011;16786;49.466;11.068;2023-04-24T07:10:49;2.85;;;1.80;;
29916;SDS011;16786;49.466;11.068;2023-04-24T07:13:18;3.90;;;1.88;;
29916;SDS011;16786;49.466;11.068;2023-04-24T07:15:46;7.50;;;3.92;;
29916;SDS011;16786;49.466;11.068;2023-04-24T07:18:16;3.55;;;1.92;;
29916;SDS011;16786;49.466;11.068;2023-04-24T07:20:43;4.25;;;2.10;;
29916;SDS011;16786;49.466;11.068;2023-04-24T07:23:11;3.67;;;1.65;;
29916;SDS011;16786;49.466;11.068;2023-04-24T07:25:38;4.90;;;2.10;;
29916;SDS011;16786;49.466;11.068;2023-04-24T07:28:07;4.72;;;2.08;;
29916;SDS011;16786;49.466;11.068;2023-04-24T07:30:35;2.50;;;1.90;;
29916;SDS011;16786;49.466;11.068;2023-04-24T07:33:02;3.85;;;1.95;;
29916;SDS011;16786;49.466;11.068;2023-04-24T07:35:29;3.75;;;2.28;;
29916;SDS011;16786;49.466;11.068;2023-04-24T07:37:57;4.05;;;2.40;;
29916;SDS011;16786;49.466;11.068;2023-04-24T07:40:24;3.47;;;2.30;;
29916;SDS011;16786;49.466;11.068;2023-04-24T07:42:52;3.60;;;2.70;;
29916;SDS011;16786;49.466;11.068;2023-04-24T07:45:20;5.13;;;2.58;;
29916;SDS011;16786;49.466;11.068;2023-04-24T07:47:47;5.85;;;2.60;;
29916;SDS011;16786;49.466;11.068;2023-04-24T07:50:15;4.60;;;2.75;;
29916;SDS011;16786;49.466;11.068;2023-04-24T07:52:42;4.38;;;2.78;;
29916;SDS011;16786;49.466;11.068;2023-04-24T07:55:10;4.63;;;3.00;;
29916;SDS011;16786;49.466;11.068;2023-04-24T07:57:37;5.10;;;3.00;;
29916;SDS011;16786;49.466;11.068;2023-04-24T08:00:05;5.25;;;2.97;;
29916;SDS011;16786;49.466;11.068;2023-04-24T08:02:37;6.68;;;2.90;;
29916;SDS011;16786;49.466;11.068;2023-04-24T08:05:05;4.72;;;2.80;;
29916;SDS011;16786;49.466;11.068;2023-04-24T08:07:33;7.18;;;3.10;;
29916;SDS011;16786;49.466;11.068;2023-04-24T08:10:02;4.55;;;2.97;;
29916;SDS011;16786;49.466;11.068;2023-04-24T08:12:30;4.50;;;3.20;;
29916;SDS011;16786;49.466;11.068;2023-04-24T08:14:57;5.30;;;3.22;;
29916;SDS011;16786;49.466;11.068;2023-04-24T08:17:25;4.00;;;3.00;;
29916;SDS011;16786;49.466;11.068;2023-04-24T08:19:53;5.60;;;3.42;;
29916;SDS011;16786;49.466;11.068;2023-04-24T08:22:29;4.57;;;3.17;;
29916;SDS011;16786;49.466;11.068;2023-04-24T08:24:59;4.68;;;3.22;;
29916;SDS011;16786;49.466;11.068;2023-04-24T08:27:27;6.53;;;3.33;;
29916;SDS011;16786;49.466;11.068;2023-04-24T08:29:54;4.85;;;3.30;;
29916;SDS011;16786;49.466;11.068;2023-04-24T08:32:22;5.65;;;4.13;;
29916;SDS011;16786;49.466;11.068;2023-04-24T08:34:49;6.28;;;3.70;;
29916;SDS011;16786;49.466;11.068;2023-04-24T08:37:19;4.35;;;3.50;;
29916;SDS011;16786;49.466;11.068;2023-04-24T08:39:48;5.13;;;3.85;;
29916;SDS011;16786;49.466;11.068;2023-04-24T08:42:20;5.13;;;3.90;;
29916;SDS011;16786;49.466;11.068;2023-04-24T08:44:48;5.38;;;3.90;;
29916;SDS011;16786;49.466;11.068;2023-04-24T08:47:17;4.38;;;3.58;;
29916;SDS011;16786;49.466;11.068;2023-04-24T08:49:47;4.75;;;3.42;;
29916;SDS011;16786;49.466;11.068;2023-04-24T08:52:16;5.43;;;3.83;;
29916;SDS011;16786;49.466;11.068;2023-04-24T08:54:45;4.75;;;3.58;;
29916;SDS011;16786;49.466;11.068;2023-04-24T08:57:14;6.53;;;3.60;;
29916;SDS011;16786;49.466;11.068;2023-04-24T08:59:41;6.32;;;4.05;;
29916;SDS011;16786;49.466;11.068;2023-04-24T09:02:11;6.25;;;3.70;;
29916;SDS011;16786;49.466;11.068;2023-04-24T09:04:40;4.88;;;3.80;;
29916;SDS011;16786;49.466;11.068;2023-04-24T09:07:08;5.00;;;3.75;;
29916;SDS011;16786;49.466;11.068;2023-04-24T09:09:39;6.10;;;4.03;;
29916;SDS011;16786;49.466;11.068;2023-04-24T09:12:08;5.15;;;4.10;;
29916;SDS011;16786;49.466;11.068;2023-04-24T09:14:37;5.68;;;4.13;;
29916;SDS011;16786;49.466;11.068;2023-04-24T09:17:11;6.82;;;4.00;;
29916;SDS011;16786;49.466;11.068;2023-04-24T09:19:41;5.20;;;4.22;;
29916;SDS011;16786;49.466;11.068;2023-04-24T09:22:09;6.03;;;4.35;;
29916;SDS011;16786;49.466;11.068;2023-04-24T09:24:39;5.57;;;4.22;;
29916;SDS011;16786;49.466;11.068;2023-04-24T09:27:06;5.03;;;4.13;;
29916;SDS011;16786;49.466;11.068;2023-04-24T09:29:37;7.65;;;4.20;;
29916;SDS011;16786;49.466;11.068;2023-04-24T09:32:17;5.25;;;3.80;;
29916;SDS011;16786;49.466;11.068;2023-04-24T09:34:48;5.53;;;3.70;;
29916;SDS011;16786;49.466;11.068;2023-04-24T09:37:27;6.20;;;3.95;;
29916;SDS011;16786;49.466;11.068;2023-04-24T09:42:54;5.97;;;3.95;;
29916;SDS011;16786;49.466;11.068;2023-04-24T09:45:28;5.10;;;3.38;;
29916;SDS011;16786;49.466;11.068;2023-04-24T09:48:09;5.82;;;3.38;;
29916;SDS011;16786;49.466;11.068;2023-04-24T09:50:37;6.65;;;3.72;;
29916;SDS011;16786;49.466;11.068;2023-04-24T09:53:05;4.90;;;3.10;;
29916;SDS011;16786;49.466;11.068;2023-04-24T09:55:44;4.85;;;2.78;;
29916;SDS011;16786;49.466;11.068;2023-04-24T09:58:14;4.85;;;3.25;;
29916;SDS011;16786;49.466;11.068;2023-04-24T10:00:42;5.50;;;3.45;;
29916;SDS011;16786;49.466;11.068;2023-04-24T10:03:09;4.32;;;3.47;;
29916;SDS011;16786;49.466;11.068;2023-04-24T10:05:38;5.07;;;3.63;;
29916;SDS011;16786;49.466;11.068;2023-04-24T10:08:06;4.35;;;3.50;;
29916;SDS011;16786;49.466;11.068;2023-04-24T10:10:42;6.55;;;3.65;;
29916;SDS011;16786;49.466;11.068;2023-04-24T10:13:15;5.22;;;3.92;;
29916;SDS011;16786;49.466;11.068;2023-04-24T10:15:42;3.63;;;3.10;;
29916;SDS011;16786;49.466;11.068;2023-04-24T10:18:11;3.70;;;3.28;;
29916;SDS011;16786;49.466;11.068;2023-04-24T10:20:39;3.83;;;3.35;;
29916;SDS011;16786;49.466;11.068;2023-04-24T10:23:09;7.35;;;3.20;;
29916;SDS011;16786;49.466;11.068;2023-04-24T10:25:38;3.88;;;3.40;;
29916;SDS011;16786;49.466;11.068;2023-04-24T10:28:06;4.57;;;3.35;;
29916;SDS011;16786;49.466;11.068;2023-04-24T10:30:38;3.47;;;3.10;;
29916;SDS011;16786;49.466;11.068;2023-04-24T10:33:09;4.43;;;3.65;;
29916;SDS011;16786;49.466;11.068;2023-04-24T10:35:38;4.47;;;3.10;;
29916;SDS011;16786;49.466;11.068;2023-04-24T10:40:38;3.95;;;3.55;;
29916;SDS011;16786;49.466;11.068;2023-04-24T10:43:07;4.10;;;3.15;;
29916;SDS011;16786;49.466;11.068;2023-04-24T10:45:38;3.42;;;3.13;;
29916;SDS011;16786;49.466;11.068;2023-04-24T10:48:07;4.13;;;3.42;;
29916;SDS011;16786;49.466;11.068;2023-04-24T10:53:13;3.35;;;3.03;;
29916;SDS011;16786;49.466;11.068;2023-04-24T10:58:14;4.68;;;3.15;;
29916;SDS011;16786;49.466;11.068;2023-04-24T11:00:43;3.42;;;2.80;;
29916;SDS011;16786;49.466;11.068;2023-04-24T11:03:26;4.25;;;2.88;;
29916;SDS011;16786;49.466;11.068;2023-04-24T11:05:59;5.93;;;3.15;;
29916;SDS011;16786;49.466;11.068;2023-04-24T11:11:10;5.47;;;3.58;;
29916;SDS011;16786;49.466;11.068;2023-04-24T11:19:00;3.50;;;3.20;;
29916;SDS011;16786;49.466;11.068;2023-04-24T11:24:27;4.10;;;3.70;;
29916;SDS011;16786;49.466;11.068;2023-04-24T11:26:56;4.82;;;3.50;;
29916;SDS011;16786;49.466;11.068;2023-04-24T11:32:17;4.20;;;3.63;;
29916;SDS011;16786;49.466;11.068;2023-04-24T11:34:47;5.18;;;3.80;;
29916;SDS011;16786;49.466;11.068;2023-04-24T11:37:15;4.70;;;3.47;;
29916;SDS011;16786;49.466;11.068;2023-04-24T11:39:43;4.60;;;3.83;;
29916;SDS011;16786;49.466;11.068;2023-04-24T11:42:12;4.47;;;3.80;;
29916;SDS011;16786;49.466;11.068;2023-04-24T11:44:43;4.70;;;3.90;;
29916;SDS011;16786;49.466;11.068;2023-04-24T11:47:10;5.10;;;4.35;;
29916;SDS011;16786;49.466;11.068;2023-04-24T11:49:39;4.43;;;4.03;;
29916;SDS011;16786;49.466;11.068;2023-04-24T11:52:06;4.07;;;3.63;;
29916;SDS011;16786;49.466;11.068;2023-04-24T11:54:34;5.63;;;4.60;;
29916;SDS011;16786;49.466;11.068;2023-04-24T11:57:03;4.75;;;4.07;;
29916;SDS011;16786;49.466;11.068;2023-04-24T11:59:36;5.07;;;3.90;;
29916;SDS011;16786;49.466;11.068;2023-04-24T12:02:04;4.22;;;3.70;;
29916;SDS011;16786;49.466;11.068;2023-04-24T12:04:40;5.22;;;3.50;;
29916;SDS011;16786;49.466;11.068;2023-04-24T12:07:08;4.30;;;3.75;;
29916;SDS011;16786;49.466;11.068;2023-04-24T12:12:25;4.30;;;3.90;;
29916;SDS011;16786;49.466;11.068;2023-04-24T12:14:54;6.55;;;3.85;;
29916;SDS011;16786;49.466;11.068;2023-04-24T12:17:24;5.25;;;4.15;;
29916;SDS011;16786;49.466;11.068;2023-04-24T12:19:58;4.63;;;3.80;;
29916;SDS011;16786;49.466;11.068;2023-04-24T12:22:28;5.80;;;4.20;;
29916;SDS011;16786;49.466;11.068;2023-04-24T12:25:11;5.88;;;4.05;;
29916;SDS011;16786;49.466;11.068;2023-04-24T12:27:38;4.43;;;3.90;;
29916;SDS011;16786;49.466;11.068;2023-04-24T12:30:09;5.30;;;4.32;;
29916;SDS011;16786;49.466;11.068;2023-04-24T12:32:45;4.10;;;3.70;;
29916;SDS011;16786;49.466;11.068;2023-04-24T12:35:18;5.53;;;3.80;;
29916;SDS011;16786;49.466;11.068;2023-04-24T12:37:47;4.43;;;3.85;;
29916;SDS011;16786;49.466;11.068;2023-04-24T12:40:16;4.97;;;3.50;;
29916;SDS011;16786;49.466;11.068;2023-04-24T12:42:45;5.30;;;3.90;;
29916;SDS011;16786;49.466;11.068;2023-04-24T12:45:18;5.22;;;3.70;;
29916;SDS011;16786;49.466;11.068;2023-04-24T12:47:46;4.00;;;3.60;;
29916;SDS011;16786;49.466;11.068;2023-04-24T12:50:14;4.68;;;3.80;;
29916;SDS011;16786;49.466;11.068;2023-04-24T12:52:43;4.32;;;3.90;;
29916;SDS011;16786;49.466;11.068;2023-04-24T12:55:11;7.03;;;3.80;;
29916;SDS011;16786;49.466;11.068;2023-04-24T12:57:40;4.20;;;3.72;;
29916;SDS011;16786;49.466;11.068;2023-04-24T13:00:07;5.00;;;3.75;;
29916;SDS011;16786;49.466;11.068;2023-04-24T13:02:37;7.80;;;4.20;;
29916;SDS011;16786;49.466;11.068;2023-04-24T13:05:05;4.63;;;3.55;;
29916;SDS011;16786;49.466;11.068;2023-04-24T13:07:38;4.20;;;3.80;;
29916;SDS011;16786;49.466;11.068;2023-04-24T13:10:06;5.45;;;3.85;;
29916;SDS011;16786;49.466;11.068;2023-04-24T13:12:34;4.18;;;3.58;;
29916;SDS011;16786;49.466;11.068;2023-04-24T13:15:02;4.68;;;3.97;;
29916;SDS011;16786;49.466;11.068;2023-04-24T13:17:30;4.25;;;3.85;;
29916;SDS011;16786;49.466;11.068;2023-04-24T13:19:57;5.30;;;3.60;;
29916;SDS011;16786;49.466;11.068;2023-04-24T13:22:25;4.30;;;3.90;;
29916;SDS011;16786;49.466;11.068;2023-04-24T13:24:52;5.28;;;4.55;;
29916;SDS011;16786;49.466;11.068;2023-04-24T13:27:19;5.28;;;4.20;;
29916;SDS011;16786;49.466;11.068;2023-04-24T13:29:47;5.20;;;3.97;;
29916;SDS011;16786;49.466;11.068;2023-04-24T13:32:14;4.55;;;3.85;;
29916;SDS011;16786;49.466;11.068;2023-04-24T13:34:42;4.40;;;3.90;;
29916;SDS011;16786;49.466;11.068;2023-04-24T13:37:10;4.72;;;4.00;;
29916;SDS011;16786;49.466;11.068;2023-04-24T13:39:37;4.57;;;4.18;;
29916;SDS011;16786;49.466;11.068;2023-04-24T13:42:04;4.20;;;3.80;;
29916;SDS011;16786;49.466;11.068;2023-04-24T13:44:32;4.97;;;3.80;;
29916;SDS011;16786;49.466;11.068;2023-04-24T13:47:00;5.35;;;4.03;;
29916;SDS011;16786;49.466;11.068;2023-04-24T13:49:27;5.90;;;4.28;;
29916;SDS011;16786;49.466;11.068;2023-04-24T13:51:56;5.20;;;3.88;;
29916;SDS011;16786;49.466;11.068;2023-04-24T13:54:23;5.05;;;4.15;;
29916;SDS011;16786;49.466;11.068;2023-04-24T13:56:55;5.85;;;4.32;;
29916;SDS011;16786;49.466;11.068;2023-04-24T13:59:24;4.82;;;4.20;;
29916;SDS011;16786;49.466;11.068;2023-04-24T14:01:52;6.80;;;4.38;;
29916;SDS011;16786;49.466;11.068;2023-04-24T14:04:21;5.28;;;4.30;;
29916;SDS011;16786;49.466;11.068;2023-04-24T14:06:49;5.03;;;4.47;;
29916;SDS011;16786;49.466;11.068;2023-04-24T14:09:17;5.70;;;4.53;;
29916;SDS011;16786;49.466;11.068;2023-04-24T14:11:45;4.90;;;4.40;;
29916;SDS011;16786;49.466;11.068;2023-04-24T14:14:13;6.07;;;4.75;;
29916;SDS011;16786;49.466;11.068;2023-04-24T14:16:40;5.75;;;4.65;;
29916;SDS011;16786;49.466;11.068;2023-04-24T14:19:09;5.20;;;4.65;;
29916;SDS011;16786;49.466;11.068;2023-04-24T14:21:36;5.63;;;5.05;;
29916;SDS011;16786;49.466;11.068;2023-04-24T14:24:09;6.05;;;5.20;;
29916;SDS011;16786;49.466;11.068;2023-04-24T14:26:36;5.35;;;4.85;;
29916;SDS011;16786;49.466;11.068;2023-04-24T14:29:04;6.47;;;4.80;;
29916;SDS011;16786;49.466;11.068;2023-04-24T14:31:40;5.20;;;4.70;;
29916;SDS011;16786;49.466;11.068;2023-04-24T14:34:09;5.13;;;4.60;;
29916;SDS011;16786;49.466;11.068;2023-04-24T14:36:37;5.75;;;4.90;;
29916;SDS011;16786;49.466;11.068;2023-04-24T14:39:04;6.32;;;4.57;;
29916;SDS011;16786;49.466;11.068;2023-04-24T14:41:34;7.20;;;4.93;;
29916;SDS011;16786;49.466;11.068;2023-04-24T14:44:03;5.45;;;4.95;;
29916;SDS011;16786;49.466;11.068;2023-04-24T14:46:33;5.45;;;4.95;;
29916;SDS011;16786;49.466;11.068;2023-04-24T14:49:01;6.53;;;4.43;;
29916;SDS011;16786;49.466;11.068;2023-04-24T14:51:29;5.40;;;4.90;;
29916;SDS011;16786;49.466;11.068;2023-04-24T14:53:58;5.60;;;5.10;;
29916;SDS011;16786;49.466;11.068;2023-04-24T14:56:25;5.95;;;5.25;;
29916;SDS011;16786;49.466;11.068;2023-04-24T14:58:52;5.70;;;4.57;;
29916;SDS011;16786;49.466;11.068;2023-04-24T15:01:20;5.00;;;4.50;;
29916;SDS011;16786;49.466;11.068;2023-04-24T15:03:48;4.72;;;4.30;;
29916;SDS011;16786;49.466;11.068;2023-04-24T15:06:16;4.93;;;4.50;;
29916;SDS011;16786;49.466;11.068;2023-04-24T15:08:44;5.95;;;4.95;;
29916;SDS011;16786;49.466;11.068;2023-04-24T15:11:15;4.88;;;4.45;;
29916;SDS011;16786;49.466;11.068;2023-04-24T15:13:42;4.90;;;4.40;;